Camellia — VRCP9 — position and weather

sailwx.info

Track history (hours):
 
Tides and Currents Weather Stations Pressure Air Temp Water Temp Dewpoint Dewpoint Depression Visibility Wind Speed Wind Dir Waves Ship Positions

Camellia

Last reported at 2016-May-03 01:28 UTC. Time now 2016-May-04 15:26 UTC.
Position N 46°40' W 004°33'.

Length 222 m; draft 10.5 m.

Type: Ship (hazmat cat C). MMSI: 477791900.

Date/timePositionNaut miles runAvg speedWind from/ knotsBaromVisibWave heightAir tempDewpointWater temp
2016-May-03 01:28N 46°40' W 004°33'1920.7
2016-May-03 00:34N 46°44' W 004°07'2120.5
2016-May-02 23:32N 46°50' W 003°37'2020.7
2016-May-02 22:33N 46°55' W 003°08'2019.7
2016-May-02 21:34N 47°00' W 002°41'1414.5
2016-May-02 20:34N 47°08' W 002°22'1211.7
2016-May-02 19:33N 47°16' W 002°11'2 1.6
2016-May-02 18:31N 47°18' W 002°09'0 0.0
2016-May-02 17:31N 47°18' W 002°09'0 0.0
2016-May-02 16:31N 47°18' W 002°09'0 0.0
2016-May-02 15:31N 47°18' W 002°09'0 0.0
2016-May-02 14:31N 47°18' W 002°09'0 0.0
2016-May-02 13:28N 47°18' W 002°09'0 0.0
2016-May-02 12:31N 47°18' W 002°09'0 0.0
2016-May-02 11:31N 47°18' W 002°09'0 0.0
2016-May-02 10:31N 47°18' W 002°09'0 0.0
2016-May-02 09:31N 47°18' W 002°09'0 0.0
2016-May-02 08:31N 47°18' W 002°09'0 0.0
2016-May-02 07:31N 47°18' W 002°09'0 0.0
2016-May-02 06:31N 47°18' W 002°09'0 0.0
2016-May-02 00:31N 47°18' W 002°09'6 6.4
2016-May-01 23:32N 47°13' W 002°16'1111.0
2016-May-01 22:33N 47°05' W 002°26'1211.6
2016-May-01 21:33N 46°59' W 002°40'1111.5
2016-May-01 20:33N 47°03' W 002°56'1616.1
2016-May-01 19:33N 47°09' W 003°18'1616.4
2016-May-01 18:33N 47°16' W 003°40'126 9.0
2016-May-01 04:32N 49°05' W 005°16'1310.2
2016-May-01 03:18N 49°11' W 004°60'1316.8
2016-May-01 02:33N 49°18' W 004°43'2216.5
2016-May-01 01:12N 49°29' W 004°14'1216.1
2016-May-01 00:29N 49°35' W 003°58'1515.9
2016-Apr-30 23:34N 49°42' W 003°39'1615.8
2016-Apr-30 22:34N 49°50' W 003°18'1616.4
2016-Apr-30 21:34N 49°58' W 002°56'1817.2
2016-Apr-30 20:31N 50°03' W 002°29'4715.8
2016-Apr-30 17:33N 49°58' W 001°16'1616.6
2016-Apr-30 16:34N 49°50' W 000°55'1615.6
2016-Apr-30 15:34N 49°41' W 000°35'1615.5
2016-Apr-30 14:34N 49°33' W 000°14'1313.0
2016-Apr-30 13:33N 49°29' E 000°05'4 3.6
2016-Apr-30 12:31N 49°27' E 000°10'0 0.0
2016-Apr-30 11:31N 49°27' E 000°10'0 0.0
2016-Apr-30 10:31N 49°27' E 000°10'0 0.0
2016-Apr-30 09:31N 49°27' E 000°10'0 0.0
2016-Apr-30 08:31N 49°27' E 000°10'0 0.0
2016-Apr-30 07:31N 49°27' E 000°10'0 0.0
2016-Apr-30 06:31N 49°27' E 000°10'0 0.0
2016-Apr-30 05:31N 49°27' E 000°10'0 0.0
2016-Apr-30 04:31N 49°27' E 000°10'0 0.0
2016-Apr-30 03:31N 49°27' E 000°10'0 0.0
2016-Apr-30 02:31N 49°27' E 000°10'0 0.0
2016-Apr-30 01:34N 49°27' E 000°10'0 0.0
2016-Apr-30 00:33N 49°27' E 000°10'0 0.0
2016-Apr-29 23:33N 49°27' E 000°10'0 0.0
2016-Apr-29 22:33N 49°27' E 000°10'0 0.0
2016-Apr-29 21:33N 49°27' E 000°10'0 0.0
2016-Apr-29 20:33N 49°27' E 000°10'0 0.0
2016-Apr-29 19:33N 49°27' E 000°10'0 0.0
2016-Apr-29 18:33N 49°27' E 000°10'0 0.0
2016-Apr-29 17:33N 49°27' E 000°10'0 0.0
2016-Apr-29 16:33N 49°27' E 000°10'0 0.0
2016-Apr-29 15:33N 49°27' E 000°10'0 0.0
2016-Apr-29 14:33N 49°27' E 000°10'0 0.0
2016-Apr-29 13:33N 49°27' E 000°10'0 0.0
2016-Apr-29 12:33N 49°27' E 000°10'0 0.0
2016-Apr-29 11:33N 49°27' E 000°10'0 0.0
2016-Apr-29 10:33N 49°27' E 000°10'0 0.0
2016-Apr-29 09:33N 49°27' E 000°10'0 0.0
2016-Apr-29 08:33N 49°27' E 000°10'3 2.6
2016-Apr-29 07:33N 49°28' E 000°06'1010.1
2016-Apr-29 06:33N 49°32' W 000°08'2 2.2
2016-Apr-29 05:33N 49°34' W 000°09'0 0.0
2016-Apr-29 04:33N 49°34' W 000°09'0 0.0
2016-Apr-29 03:33N 49°34' W 000°09'0 0.0
2016-Apr-29 02:32N 49°34' W 000°09'0 0.0
2016-Apr-29 01:32N 49°34' W 000°09'0 0.0
2016-Apr-29 00:32N 49°34' W 000°09'0 0.0
2016-Apr-28 23:32N 49°34' W 000°09'0 0.0
2016-Apr-28 22:32N 49°34' W 000°09'0 0.0
2016-Apr-28 21:32N 49°34' W 000°09'0 0.0
2016-Apr-28 20:29N 49°34' W 000°09'0 0.0
2016-Apr-28 19:32N 49°34' W 000°09'0 0.0
2016-Apr-28 18:32N 49°34' W 000°09'0 0.1
2016-Apr-28 17:32N 49°34' W 000°09'0 0.1
2016-Apr-28 16:32N 49°34' W 000°09'0 0.1
2016-Apr-28 15:32N 49°34' W 000°09'0 0.1
2016-Apr-28 14:32N 49°34' W 000°09'0 0.0
2016-Apr-28 13:32N 49°34' W 000°09'0 0.0
2016-Apr-28 12:32N 49°34' W 000°09'0 0.0
2016-Apr-28 11:32N 49°34' W 000°09'0 0.3
2016-Apr-28 10:33N 49°34' W 000°09'1413.8
2016-Apr-28 09:33N 49°48' W 000°04'1716.9
2016-Apr-28 08:33N 50°05' W 000°04'1716.9
2016-Apr-28 07:33N 50°22' W 000°03'1514.6
2016-Apr-28 06:30N 50°32' E 000°14'1717.3
2016-Apr-28 05:33N 50°38' E 000°38'1716.4
2016-Apr-28 04:32N 50°48' E 000°59'1515.1
2016-Apr-28 03:33N 50°59' E 001°16'1414.2
2016-Apr-28 02:33N 51°07' E 001°35'1514.7
2016-Apr-28 01:33N 51°18' E 001°50'1717.0
2016-Apr-28 00:33N 51°33' E 002°04'6315.7
2016-Apr-27 20:33N 52°02' E 003°34'1313.4
2016-Apr-27 19:33N 52°02' E 003°55'1312.6
2016-Apr-27 18:34N 51°56' E 004°13'8 7.7
2016-Apr-27 17:33N 51°54' E 004°25'1 0.7
2016-Apr-27 16:33N 51°53' E 004°26'0 0.0
2016-Apr-27 15:33N 51°53' E 004°26'0 0.0
2016-Apr-27 14:32N 51°53' E 004°26'0 0.0
2016-Apr-27 13:32N 51°53' E 004°26'0 0.0
2016-Apr-27 12:32N 51°53' E 004°26'0 0.0
2016-Apr-27 11:32N 51°53' E 004°26'0 0.0
2016-Apr-27 10:31N 51°53' E 004°26'0 0.0
2016-Apr-27 09:31N 51°53' E 004°26'0 0.0
2016-Apr-27 08:32N 51°53' E 004°26'3 3.5
2016-Apr-27 07:34N 51°54' E 004°20'10 9.6
2016-Apr-27 06:34N 51°59' E 004°07'1110.7
2016-Apr-27 05:34N 52°02' E 003°50'7 7.4
2016-Apr-27 04:34N 51°58' E 003°40'23 5.3
2016-Apr-27 00:16N 51°48' E 003°06'6 9.0
2016-Apr-26 23:33N 51°44' E 002°59'9 8.9
2016-Apr-26 22:34N 51°37' E 002°50'9 8.6
2016-Apr-26 21:33N 51°29' E 002°44'5 5.1
2016-Apr-26 20:33N 51°25' E 002°51'1413.9
2016-Apr-26 19:33N 51°21' E 003°12'1 0.6
2016-Apr-26 18:32N 51°21' E 003°11'0 0.0
2016-Apr-26 17:32N 51°21' E 003°11'0 0.0
2016-Apr-26 16:29N 51°21' E 003°11'0 0.0
2016-Apr-26 15:29N 51°21' E 003°11'0 0.0
2016-Apr-26 14:32N 51°21' E 003°11'0 0.0
2016-Apr-26 13:32N 51°21' E 003°11'0 0.0
2016-Apr-26 12:32N 51°21' E 003°11'0 0.0
2016-Apr-26 11:29N 51°21' E 003°11'2 1.8
2016-Apr-26 10:33N 51°22' E 003°10'1413.8
2016-Apr-26 09:33N 51°22' E 002°48'1111.4
2016-Apr-26 08:33N 51°22' E 002°30'1817.9
2016-Apr-26 07:34N 51°13' E 002°05'1616.1
2016-Apr-26 06:34N 51°03' E 001°45'1514.7
2016-Apr-26 05:33N 51°03' E 002°08'3 2.6
2016-Apr-26 04:26N 51°01' E 002°11'0 0.0
2016-Apr-26 03:32N 51°01' E 002°11'0 0.0
2016-Apr-26 02:26N 51°01' E 002°11'0 0.0
2016-Apr-26 01:14N 51°01' E 002°11'0 0.0
2016-Apr-25 23:17N 51°01' E 002°11'0 0.0
2016-Apr-25 22:20N 51°01' E 002°11'0 0.0
2016-Apr-25 21:31N 51°01' E 002°11'0 0.0
2016-Apr-25 20:31N 51°01' E 002°11'0 0.0
2016-Apr-25 19:22N 51°01' E 002°11'0 0.0
2016-Apr-25 18:31N 51°01' E 002°11'0 0.0
2016-Apr-25 17:31N 51°01' E 002°11'0 0.0
2016-Apr-25 16:31N 51°01' E 002°11'0 0.0
2016-Apr-25 15:22N 51°01' E 002°11'0 0.0
2016-Apr-25 14:31N 51°01' E 002°11'0 0.0
2016-Apr-25 13:28N 51°01' E 002°11'0 0.0
2016-Apr-25 12:31N 51°01' E 002°11'0 0.0
2016-Apr-25 11:31N 51°01' E 002°11'0 0.0
2016-Apr-25 09:22N 51°01' E 002°11'0 0.0
2016-Apr-25 07:10N 51°01' E 002°11'0 0.0
2016-Apr-25 06:31N 51°01' E 002°11'0 0.0
2016-Apr-25 05:19N 51°01' E 002°11'0 0.0
2016-Apr-25 04:31N 51°01' E 002°11'0 0.0
2016-Apr-25 03:31N 51°01' E 002°11'2 2.0
2016-Apr-25 02:34N 51°02' E 002°10'1313.2
2016-Apr-25 01:33N 51°02' E 001°49'1312.7
2016-Apr-25 00:34N 50°55' E 001°31'5317.0
2016-Apr-24 21:28N 50°23' E 000°26'1718.4
2016-Apr-24 20:33N 50°18' E 000°01'1817.9
2016-Apr-24 19:33N 50°14' W 000°26'9510.1
2016-Apr-24 10:07N 49°50' W 002°49'3312.5
2016-Apr-24 07:28N 49°40' W 003°38'  
Track history (hours):
 
Tides and Currents Weather Stations Pressure Air Temp Water Temp Dewpoint Dewpoint Depression Visibility Wind Speed Wind Dir Waves Ship Positions

Camellia

Last reported at 2016-May-03 01:28 UTC. Time now 2016-May-04 15:26 UTC.
Position N 46°40' W 004°33'.

Length 222 m; draft 10.5 m.

Type: Ship (hazmat cat C). MMSI: 477791900.

Date/timePositionNaut miles runAvg speedWind from/ knotsBaromVisibWave heightAir tempDewpointWater temp
2016-May-03 01:28N 46°40' W 004°33'1920.7
2016-May-03 00:34N 46°44' W 004°07'2120.5
2016-May-02 23:32N 46°50' W 003°37'2020.7
2016-May-02 22:33N 46°55' W 003°08'2019.7
2016-May-02 21:34N 47°00' W 002°41'1414.5
2016-May-02 20:34N 47°08' W 002°22'1211.7
2016-May-02 19:33N 47°16' W 002°11'2 1.6
2016-May-02 18:31N 47°18' W 002°09'0 0.0
2016-May-02 17:31N 47°18' W 002°09'0 0.0
2016-May-02 16:31N 47°18' W 002°09'0 0.0
2016-May-02 15:31N 47°18' W 002°09'0 0.0
2016-May-02 14:31N 47°18' W 002°09'0 0.0
2016-May-02 13:28N 47°18' W 002°09'0 0.0
2016-May-02 12:31N 47°18' W 002°09'0 0.0
2016-May-02 11:31N 47°18' W 002°09'0 0.0
2016-May-02 10:31N 47°18' W 002°09'0 0.0
2016-May-02 09:31N 47°18' W 002°09'0 0.0
2016-May-02 08:31N 47°18' W 002°09'0 0.0
2016-May-02 07:31N 47°18' W 002°09'0 0.0
2016-May-02 06:31N 47°18' W 002°09'0 0.0
2016-May-02 00:31N 47°18' W 002°09'6 6.4
2016-May-01 23:32N 47°13' W 002°16'1111.0
2016-May-01 22:33N 47°05' W 002°26'1211.6
2016-May-01 21:33N 46°59' W 002°40'1111.5
2016-May-01 20:33N 47°03' W 002°56'1616.1
2016-May-01 19:33N 47°09' W 003°18'1616.4
2016-May-01 18:33N 47°16' W 003°40'126 9.0
2016-May-01 04:32N 49°05' W 005°16'1310.2
2016-May-01 03:18N 49°11' W 004°60'1316.8
2016-May-01 02:33N 49°18' W 004°43'2216.5
2016-May-01 01:12N 49°29' W 004°14'1216.1
2016-May-01 00:29N 49°35' W 003°58'1515.9
2016-Apr-30 23:34N 49°42' W 003°39'1615.8
2016-Apr-30 22:34N 49°50' W 003°18'1616.4
2016-Apr-30 21:34N 49°58' W 002°56'1817.2
2016-Apr-30 20:31N 50°03' W 002°29'4715.8
2016-Apr-30 17:33N 49°58' W 001°16'1616.6
2016-Apr-30 16:34N 49°50' W 000°55'1615.6
2016-Apr-30 15:34N 49°41' W 000°35'1615.5
2016-Apr-30 14:34N 49°33' W 000°14'1313.0
2016-Apr-30 13:33N 49°29' E 000°05'4 3.6
2016-Apr-30 12:31N 49°27' E 000°10'0 0.0
2016-Apr-30 11:31N 49°27' E 000°10'0 0.0
2016-Apr-30 10:31N 49°27' E 000°10'0 0.0
2016-Apr-30 09:31N 49°27' E 000°10'0 0.0
2016-Apr-30 08:31N 49°27' E 000°10'0 0.0
2016-Apr-30 07:31N 49°27' E 000°10'0 0.0
2016-Apr-30 06:31N 49°27' E 000°10'0 0.0
2016-Apr-30 05:31N 49°27' E 000°10'0 0.0
2016-Apr-30 04:31N 49°27' E 000°10'0 0.0
2016-Apr-30 03:31N 49°27' E 000°10'0 0.0
2016-Apr-30 02:31N 49°27' E 000°10'0 0.0
2016-Apr-30 01:34N 49°27' E 000°10'0 0.0
2016-Apr-30 00:33N 49°27' E 000°10'0 0.0
2016-Apr-29 23:33N 49°27' E 000°10'0 0.0
2016-Apr-29 22:33N 49°27' E 000°10'0 0.0
2016-Apr-29 21:33N 49°27' E 000°10'0 0.0
2016-Apr-29 20:33N 49°27' E 000°10'0 0.0
2016-Apr-29 19:33N 49°27' E 000°10'0 0.0
2016-Apr-29 18:33N 49°27' E 000°10'0 0.0
2016-Apr-29 17:33N 49°27' E 000°10'0 0.0
2016-Apr-29 16:33N 49°27' E 000°10'0 0.0
2016-Apr-29 15:33N 49°27' E 000°10'0 0.0
2016-Apr-29 14:33N 49°27' E 000°10'0 0.0
2016-Apr-29 13:33N 49°27' E 000°10'0 0.0
2016-Apr-29 12:33N 49°27' E 000°10'0 0.0
2016-Apr-29 11:33N 49°27' E 000°10'0 0.0
2016-Apr-29 10:33N 49°27' E 000°10'0 0.0
2016-Apr-29 09:33N 49°27' E 000°10'0 0.0
2016-Apr-29 08:33N 49°27' E 000°10'3 2.6
2016-Apr-29 07:33N 49°28' E 000°06'1010.1
2016-Apr-29 06:33N 49°32' W 000°08'2 2.2
2016-Apr-29 05:33N 49°34' W 000°09'0 0.0
2016-Apr-29 04:33N 49°34' W 000°09'0 0.0
2016-Apr-29 03:33N 49°34' W 000°09'0 0.0
2016-Apr-29 02:32N 49°34' W 000°09'0 0.0
2016-Apr-29 01:32N 49°34' W 000°09'0 0.0
2016-Apr-29 00:32N 49°34' W 000°09'0 0.0
2016-Apr-28 23:32N 49°34' W 000°09'0 0.0
2016-Apr-28 22:32N 49°34' W 000°09'0 0.0
2016-Apr-28 21:32N 49°34' W 000°09'0 0.0
2016-Apr-28 20:29N 49°34' W 000°09'0 0.0
2016-Apr-28 19:32N 49°34' W 000°09'0 0.0
2016-Apr-28 18:32N 49°34' W 000°09'0 0.1
2016-Apr-28 17:32N 49°34' W 000°09'0 0.1
2016-Apr-28 16:32N 49°34' W 000°09'0 0.1
2016-Apr-28 15:32N 49°34' W 000°09'0 0.1
2016-Apr-28 14:32N 49°34' W 000°09'0 0.0
2016-Apr-28 13:32N 49°34' W 000°09'0 0.0
2016-Apr-28 12:32N 49°34' W 000°09'0 0.0
2016-Apr-28 11:32N 49°34' W 000°09'0 0.3
2016-Apr-28 10:33N 49°34' W 000°09'1413.8
2016-Apr-28 09:33N 49°48' W 000°04'1716.9
2016-Apr-28 08:33N 50°05' W 000°04'1716.9
2016-Apr-28 07:33N 50°22' W 000°03'1514.6
2016-Apr-28 06:30N 50°32' E 000°14'1717.3
2016-Apr-28 05:33N 50°38' E 000°38'1716.4
2016-Apr-28 04:32N 50°48' E 000°59'1515.1
2016-Apr-28 03:33N 50°59' E 001°16'1414.2
2016-Apr-28 02:33N 51°07' E 001°35'1514.7
2016-Apr-28 01:33N 51°18' E 001°50'1717.0
2016-Apr-28 00:33N 51°33' E 002°04'6315.7
2016-Apr-27 20:33N 52°02' E 003°34'1313.4
2016-Apr-27 19:33N 52°02' E 003°55'1312.6
2016-Apr-27 18:34N 51°56' E 004°13'8 7.7
2016-Apr-27 17:33N 51°54' E 004°25'1 0.7
2016-Apr-27 16:33N 51°53' E 004°26'0 0.0
2016-Apr-27 15:33N 51°53' E 004°26'0 0.0
2016-Apr-27 14:32N 51°53' E 004°26'0 0.0
2016-Apr-27 13:32N 51°53' E 004°26'0 0.0
2016-Apr-27 12:32N 51°53' E 004°26'0 0.0
2016-Apr-27 11:32N 51°53' E 004°26'0 0.0
2016-Apr-27 10:31N 51°53' E 004°26'0 0.0
2016-Apr-27 09:31N 51°53' E 004°26'0 0.0
2016-Apr-27 08:32N 51°53' E 004°26'3 3.5
2016-Apr-27 07:34N 51°54' E 004°20'10 9.6
2016-Apr-27 06:34N 51°59' E 004°07'1110.7
2016-Apr-27 05:34N 52°02' E 003°50'7 7.4
2016-Apr-27 04:34N 51°58' E 003°40'23 5.3
2016-Apr-27 00:16N 51°48' E 003°06'6 9.0
2016-Apr-26 23:33N 51°44' E 002°59'9 8.9
2016-Apr-26 22:34N 51°37' E 002°50'9 8.6
2016-Apr-26 21:33N 51°29' E 002°44'5 5.1
2016-Apr-26 20:33N 51°25' E 002°51'1413.9
2016-Apr-26 19:33N 51°21' E 003°12'1 0.6
2016-Apr-26 18:32N 51°21' E 003°11'0 0.0
2016-Apr-26 17:32N 51°21' E 003°11'0 0.0
2016-Apr-26 16:29N 51°21' E 003°11'0 0.0
2016-Apr-26 15:29N 51°21' E 003°11'0 0.0
2016-Apr-26 14:32N 51°21' E 003°11'0 0.0
2016-Apr-26 13:32N 51°21' E 003°11'0 0.0
2016-Apr-26 12:32N 51°21' E 003°11'0 0.0
2016-Apr-26 11:29N 51°21' E 003°11'2 1.8
2016-Apr-26 10:33N 51°22' E 003°10'1413.8
2016-Apr-26 09:33N 51°22' E 002°48'1111.4
2016-Apr-26 08:33N 51°22' E 002°30'1817.9
2016-Apr-26 07:34N 51°13' E 002°05'1616.1
2016-Apr-26 06:34N 51°03' E 001°45'1514.7
2016-Apr-26 05:33N 51°03' E 002°08'3 2.6
2016-Apr-26 04:26N 51°01' E 002°11'0 0.0
2016-Apr-26 03:32N 51°01' E 002°11'0 0.0
2016-Apr-26 02:26N 51°01' E 002°11'0 0.0
2016-Apr-26 01:14N 51°01' E 002°11'0 0.0
2016-Apr-25 23:17N 51°01' E 002°11'0 0.0
2016-Apr-25 22:20N 51°01' E 002°11'0 0.0
2016-Apr-25 21:31N 51°01' E 002°11'0 0.0
2016-Apr-25 20:31N 51°01' E 002°11'0 0.0
2016-Apr-25 19:22N 51°01' E 002°11'0 0.0
2016-Apr-25 18:31N 51°01' E 002°11'0 0.0
2016-Apr-25 17:31N 51°01' E 002°11'0 0.0
2016-Apr-25 16:31N 51°01' E 002°11'0 0.0
2016-Apr-25 15:22N 51°01' E 002°11'0 0.0
2016-Apr-25 14:31N 51°01' E 002°11'0 0.0
2016-Apr-25 13:28N 51°01' E 002°11'0 0.0
2016-Apr-25 12:31N 51°01' E 002°11'0 0.0
2016-Apr-25 11:31N 51°01' E 002°11'0 0.0
2016-Apr-25 09:22N 51°01' E 002°11'0 0.0
2016-Apr-25 07:10N 51°01' E 002°11'0 0.0
2016-Apr-25 06:31N 51°01' E 002°11'0 0.0
2016-Apr-25 05:19N 51°01' E 002°11'0 0.0
2016-Apr-25 04:31N 51°01' E 002°11'0 0.0
2016-Apr-25 03:31N 51°01' E 002°11'2 2.0
2016-Apr-25 02:34N 51°02' E 002°10'1313.2
2016-Apr-25 01:33N 51°02' E 001°49'1312.7
2016-Apr-25 00:34N 50°55' E 001°31'5317.0
2016-Apr-24 21:28N 50°23' E 000°26'1718.4
2016-Apr-24 20:33N 50°18' E 000°01'1817.9
2016-Apr-24 19:33N 50°14' W 000°26'9510.1
2016-Apr-24 10:07N 49°50' W 002°49'3312.5
2016-Apr-24 07:28N 49°40' W 003°38'  

Dump ship's entire track history